YDRN weather

Drouin Airport
Drouin, Victoria, Australia

Public forecast

Using degrees Celsius for public forecast. Weather courtesy of forecast.io.

METAR (pilot weather report)

Closest report is Melbourne Essendon Airport, 52.6 nm (97.4 km) WNW. Retrieved 2018/10/18 00:00 UTC (11 minutes ago):

YMEN 180000Z AUTO 35012KT 9999 // BKN039 BKN067 OVC090 18/12 Q1014

TAF (pilot weather forecast)

Forecast is more than 6 hours old.

Closest forecast is Melbourne International Airport, 56.8 nm (105.1 km) NW. Retrieved 2018/10/17 18:00 UTC (6 hours ago):

TAF YMML 171710Z 1718/1824 35012KT 9999 -SHRA FEW020 BKN040 FM172000 33014KT 9999 -SHRA SCT040 FM180400 30010KT 9999 -SHRA BKN040 FM181300 36008KT 9999 SCT040 FM182100 36014KT CAVOK